sensor_id;sensor_type;location;lat;lon;timestamp;P1;durP1;ratioP1;P2;durP2;ratioP2
10489;SDS011;35569;48.402;10.670;2022-08-02T00:00:24;1.53;;;1.43;;
10489;SDS011;35569;48.402;10.670;2022-08-02T00:00:57;2.10;;;1.20;;
10489;SDS011;35569;48.402;10.670;2022-08-02T00:01:32;1.40;;;1.30;;
10489;SDS011;35569;48.402;10.670;2022-08-02T00:02:04;1.60;;;1.50;;
10489;SDS011;35569;48.402;10.670;2022-08-02T00:02:40;1.10;;;1.10;;
10489;SDS011;35569;48.402;10.670;2022-08-02T00:03:15;1.17;;;1.17;;
10489;SDS011;35569;48.402;10.670;2022-08-02T00:03:47;1.40;;;1.30;;
10489;SDS011;35569;48.402;10.670;2022-08-02T00:04:20;1.73;;;1.20;;
10489;SDS011;35569;48.402;10.670;2022-08-02T00:04:55;1.07;;;1.07;;
10489;SDS011;35569;48.402;10.670;2022-08-02T00:05:27;1.37;;;1.37;;
10489;SDS011;35569;48.402;10.670;2022-08-02T00:06:00;1.53;;;1.27;;
10489;SDS011;35569;48.402;10.670;2022-08-02T00:06:35;1.07;;;1.07;;
10489;SDS011;35569;48.402;10.670;2022-08-02T00:07:08;1.00;;;1.00;;
10489;SDS011;35569;48.402;10.670;2022-08-02T00:07:40;6.27;;;1.43;;
10489;SDS011;35569;48.402;10.670;2022-08-02T00:08:15;1.20;;;1.10;;
10489;SDS011;35569;48.402;10.670;2022-08-02T00:08:48;1.53;;;1.20;;
10489;SDS011;35569;48.402;10.670;2022-08-02T00:09:20;1.37;;;1.37;;
10489;SDS011;35569;48.402;10.670;2022-08-02T00:09:55;2.53;;;1.10;;
10489;SDS011;35569;48.402;10.670;2022-08-02T00:10:28;1.63;;;1.23;;
10489;SDS011;35569;48.402;10.670;2022-08-02T00:11:01;3.27;;;1.20;;
10489;SDS011;35569;48.402;10.670;2022-08-02T00:11:38;1.37;;;1.27;;
10489;SDS011;35569;48.402;10.670;2022-08-02T00:12:13;2.00;;;1.30;;
10489;SDS011;35569;48.402;10.670;2022-08-02T00:12:46;1.40;;;1.30;;
10489;SDS011;35569;48.402;10.670;2022-08-02T00:13:23;1.30;;;1.20;;
10489;SDS011;35569;48.402;10.670;2022-08-02T00:13:56;1.00;;;1.00;;
10489;SDS011;35569;48.402;10.670;2022-08-02T00:14:28;2.10;;;1.40;;
10489;SDS011;35569;48.402;10.670;2022-08-02T00:15:04;1.40;;;1.30;;
10489;SDS011;35569;48.402;10.670;2022-08-02T00:15:37;1.23;;;1.20;;
10489;SDS011;35569;48.402;10.670;2022-08-02T00:16:09;1.00;;;1.00;;
10489;SDS011;35569;48.402;10.670;2022-08-02T00:16:47;1.20;;;1.10;;
10489;SDS011;35569;48.402;10.670;2022-08-02T00:17:20;1.30;;;1.30;;
10489;SDS011;35569;48.402;10.670;2022-08-02T00:17:52;1.60;;;1.50;;
10489;SDS011;35569;48.402;10.670;2022-08-02T00:18:27;1.83;;;1.20;;
10489;SDS011;35569;48.402;10.670;2022-08-02T00:19:00;3.27;;;1.20;;
10489;SDS011;35569;48.402;10.670;2022-08-02T00:19:32;1.00;;;1.00;;
10489;SDS011;35569;48.402;10.670;2022-08-02T00:20:08;1.40;;;1.30;;
10489;SDS011;35569;48.402;10.670;2022-08-02T00:20:42;1.10;;;1.10;;
10489;SDS011;35569;48.402;10.670;2022-08-02T00:21:14;1.20;;;1.20;;
10489;SDS011;35569;48.402;10.670;2022-08-02T00:21:50;1.03;;;1.03;;
10489;SDS011;35569;48.402;10.670;2022-08-02T00:22:22;1.30;;;1.20;;
10489;SDS011;35569;48.402;10.670;2022-08-02T00:22:57;1.20;;;1.13;;
10489;SDS011;35569;48.402;10.670;2022-08-02T00:23:30;1.00;;;1.00;;
10489;SDS011;35569;48.402;10.670;2022-08-02T00:24:03;1.83;;;1.27;;
10489;SDS011;35569;48.402;10.670;2022-08-02T00:24:58;1.10;;;1.10;;
10489;SDS011;35569;48.402;10.670;2022-08-02T00:25:30;1.20;;;1.20;;
10489;SDS011;35569;48.402;10.670;2022-08-02T00:26:03;1.30;;;1.20;;
10489;SDS011;35569;48.402;10.670;2022-08-02T00:26:41;1.83;;;1.10;;
10489;SDS011;35569;48.402;10.670;2022-08-02T00:27:13;1.80;;;1.20;;
10489;SDS011;35569;48.402;10.670;2022-08-02T00:27:46;1.13;;;1.13;;
10489;SDS011;35569;48.402;10.670;2022-08-02T00:28:21;1.83;;;1.33;;
10489;SDS011;35569;48.402;10.670;2022-08-02T00:28:58;2.60;;;1.40;;
10489;SDS011;35569;48.402;10.670;2022-08-02T00:29:33;3.13;;;1.20;;
10489;SDS011;35569;48.402;10.670;2022-08-02T00:30:13;1.27;;;1.17;;
10489;SDS011;35569;48.402;10.670;2022-08-02T00:30:45;1.00;;;1.00;;
10489;SDS011;35569;48.402;10.670;2022-08-02T00:31:20;3.00;;;1.13;;
10489;SDS011;35569;48.402;10.670;2022-08-02T00:31:53;1.30;;;1.20;;
10489;SDS011;35569;48.402;10.670;2022-08-02T00:32:25;1.47;;;1.37;;
10489;SDS011;35569;48.402;10.670;2022-08-02T00:33:00;1.27;;;1.17;;
10489;SDS011;35569;48.402;10.670;2022-08-02T00:33:33;1.40;;;1.30;;
10489;SDS011;35569;48.402;10.670;2022-08-02T00:34:25;1.27;;;1.27;;
10489;SDS011;35569;48.402;10.670;2022-08-02T00:35:07;1.07;;;1.07;;
10489;SDS011;35569;48.402;10.670;2022-08-02T00:35:40;2.40;;;1.07;;
10489;SDS011;35569;48.402;10.670;2022-08-02T00:36:12;3.70;;;1.20;;
10489;SDS011;35569;48.402;10.670;2022-08-02T00:36:47;1.30;;;1.30;;
10489;SDS011;35569;48.402;10.670;2022-08-02T00:37:20;1.07;;;1.07;;
10489;SDS011;35569;48.402;10.670;2022-08-02T00:37:52;1.37;;;1.27;;
10489;SDS011;35569;48.402;10.670;2022-08-02T00:38:27;1.10;;;1.10;;
10489;SDS011;35569;48.402;10.670;2022-08-02T00:39:00;0.90;;;0.90;;
10489;SDS011;35569;48.402;10.670;2022-08-02T00:39:32;1.20;;;1.20;;
10489;SDS011;35569;48.402;10.670;2022-08-02T00:40:08;1.43;;;1.33;;
10489;SDS011;35569;48.402;10.670;2022-08-02T00:40:45;0.90;;;0.90;;
10489;SDS011;35569;48.402;10.670;2022-08-02T00:41:19;1.27;;;1.17;;
10489;SDS011;35569;48.402;10.670;2022-08-02T00:41:57;1.10;;;1.10;;
10489;SDS011;35569;48.402;10.670;2022-08-02T00:42:30;1.27;;;1.13;;
10489;SDS011;35569;48.402;10.670;2022-08-02T00:43:03;1.20;;;1.20;;
10489;SDS011;35569;48.402;10.670;2022-08-02T00:43:40;0.90;;;0.90;;
10489;SDS011;35569;48.402;10.670;2022-08-02T00:44:12;1.10;;;1.10;;
10489;SDS011;35569;48.402;10.670;2022-08-02T00:44:45;1.27;;;1.27;;
10489;SDS011;35569;48.402;10.670;2022-08-02T00:45:20;1.40;;;1.30;;
10489;SDS011;35569;48.402;10.670;2022-08-02T00:46:13;1.17;;;1.17;;
10489;SDS011;35569;48.402;10.670;2022-08-02T00:46:46;1.30;;;1.30;;
10489;SDS011;35569;48.402;10.670;2022-08-02T00:47:21;1.17;;;1.17;;
10489;SDS011;35569;48.402;10.670;2022-08-02T00:47:53;1.20;;;1.10;;
10489;SDS011;35569;48.402;10.670;2022-08-02T00:48:26;1.30;;;1.20;;
10489;SDS011;35569;48.402;10.670;2022-08-02T00:49:02;1.27;;;0.93;;
10489;SDS011;35569;48.402;10.670;2022-08-02T00:49:37;1.10;;;1.10;;
10489;SDS011;35569;48.402;10.670;2022-08-02T00:50:09;1.50;;;1.40;;
10489;SDS011;35569;48.402;10.670;2022-08-02T00:50:45;0.97;;;0.97;;
10489;SDS011;35569;48.402;10.670;2022-08-02T00:51:17;0.90;;;0.90;;
10489;SDS011;35569;48.402;10.670;2022-08-02T00:51:50;0.90;;;0.90;;
10489;SDS011;35569;48.402;10.670;2022-08-02T00:52:25;1.00;;;1.00;;
10489;SDS011;35569;48.402;10.670;2022-08-02T00:52:57;1.50;;;1.20;;
10489;SDS011;35569;48.402;10.670;2022-08-02T00:53:30;1.17;;;1.17;;
10489;SDS011;35569;48.402;10.670;2022-08-02T00:54:06;1.40;;;1.00;;
10489;SDS011;35569;48.402;10.670;2022-08-02T00:54:38;1.13;;;1.13;;
10489;SDS011;35569;48.402;10.670;2022-08-02T00:55:11;1.43;;;1.33;;
10489;SDS011;35569;48.402;10.670;2022-08-02T00:55:53;1.00;;;1.00;;
10489;SDS011;35569;48.402;10.670;2022-08-02T00:56:26;1.40;;;1.30;;
10489;SDS011;35569;48.402;10.670;2022-08-02T00:57:01;1.70;;;1.10;;
10489;SDS011;35569;48.402;10.670;2022-08-02T00:57:36;0.90;;;0.90;;
10489;SDS011;35569;48.402;10.670;2022-08-02T00:58:09;1.13;;;0.93;;
10489;SDS011;35569;48.402;10.670;2022-08-02T00:58:41;0.97;;;0.97;;
10489;SDS011;35569;48.402;10.670;2022-08-02T00:59:16;0.77;;;0.77;;
10489;SDS011;35569;48.402;10.670;2022-08-02T00:59:49;1.20;;;1.10;;
10489;SDS011;35569;48.402;10.670;2022-08-02T01:00:22;1.53;;;1.20;;
10489;SDS011;35569;48.402;10.670;2022-08-02T01:01:00;1.20;;;1.10;;
10489;SDS011;35569;48.402;10.670;2022-08-02T01:01:33;1.00;;;1.00;;
10489;SDS011;35569;48.402;10.670;2022-08-02T01:02:27;1.20;;;1.20;;
10489;SDS011;35569;48.402;10.670;2022-08-02T01:02:59;1.00;;;0.90;;
10489;SDS011;35569;48.402;10.670;2022-08-02T01:03:32;1.00;;;1.00;;
10489;SDS011;35569;48.402;10.670;2022-08-02T01:04:07;1.00;;;1.00;;
10489;SDS011;35569;48.402;10.670;2022-08-02T01:04:40;0.90;;;0.90;;
10489;SDS011;35569;48.402;10.670;2022-08-02T01:05:13;1.57;;;1.30;;
10489;SDS011;35569;48.402;10.670;2022-08-02T01:05:48;1.00;;;1.00;;
10489;SDS011;35569;48.402;10.670;2022-08-02T01:06:41;1.07;;;0.90;;
10489;SDS011;35569;48.402;10.670;2022-08-02T01:07:13;1.13;;;1.00;;
10489;SDS011;35569;48.402;10.670;2022-08-02T01:07:49;0.93;;;0.93;;
10489;SDS011;35569;48.402;10.670;2022-08-02T01:08:21;1.03;;;0.83;;
10489;SDS011;35569;48.402;10.670;2022-08-02T01:09:03;1.00;;;1.00;;
10489;SDS011;35569;48.402;10.670;2022-08-02T01:09:38;2.40;;;0.90;;
10489;SDS011;35569;48.402;10.670;2022-08-02T01:10:11;0.97;;;0.97;;
10489;SDS011;35569;48.402;10.670;2022-08-02T01:10:44;2.60;;;1.20;;
10489;SDS011;35569;48.402;10.670;2022-08-02T01:11:20;0.90;;;0.90;;
10489;SDS011;35569;48.402;10.670;2022-08-02T01:11:52;0.90;;;0.90;;
10489;SDS011;35569;48.402;10.670;2022-08-02T01:12:27;2.00;;;1.27;;
10489;SDS011;35569;48.402;10.670;2022-08-02T01:13:02;3.67;;;1.20;;
10489;SDS011;35569;48.402;10.670;2022-08-02T01:13:35;1.10;;;1.10;;
10489;SDS011;35569;48.402;10.670;2022-08-02T01:14:08;1.00;;;0.87;;
10489;SDS011;35569;48.402;10.670;2022-08-02T01:14:45;1.10;;;0.90;;
10489;SDS011;35569;48.402;10.670;2022-08-02T01:15:19;0.97;;;0.97;;
10489;SDS011;35569;48.402;10.670;2022-08-02T01:16:07;1.00;;;1.00;;
10489;SDS011;35569;48.402;10.670;2022-08-02T01:16:47;1.13;;;1.10;;
10489;SDS011;35569;48.402;10.670;2022-08-02T01:17:25;0.87;;;0.87;;
10489;SDS011;35569;48.402;10.670;2022-08-02T01:18:04;1.53;;;1.10;;
10489;SDS011;35569;48.402;10.670;2022-08-02T01:18:46;1.00;;;0.90;;
10489;SDS011;35569;48.402;10.670;2022-08-02T01:19:27;0.90;;;0.90;;
10489;SDS011;35569;48.402;10.670;2022-08-02T01:20:05;0.90;;;0.90;;
10489;SDS011;35569;48.402;10.670;2022-08-02T01:20:48;0.83;;;0.83;;
10489;SDS011;35569;48.402;10.670;2022-08-02T01:21:36;1.00;;;1.00;;
10489;SDS011;35569;48.402;10.670;2022-08-02T01:22:20;1.23;;;1.17;;
10489;SDS011;35569;48.402;10.670;2022-08-02T01:23:31;0.83;;;0.83;;
10489;SDS011;35569;48.402;10.670;2022-08-02T01:24:16;1.20;;;1.20;;
10489;SDS011;35569;48.402;10.670;2022-08-02T01:25:06;1.03;;;1.03;;
10489;SDS011;35569;48.402;10.670;2022-08-02T01:25:58;0.90;;;0.90;;
10489;SDS011;35569;48.402;10.670;2022-08-02T01:26:40;1.10;;;0.93;;
10489;SDS011;35569;48.402;10.670;2022-08-02T01:27:20;1.37;;;1.10;;
10489;SDS011;35569;48.402;10.670;2022-08-02T01:28:12;1.00;;;1.00;;
10489;SDS011;35569;48.402;10.670;2022-08-02T01:29:00;0.90;;;0.90;;
10489;SDS011;35569;48.402;10.670;2022-08-02T01:29:38;1.10;;;1.10;;
10489;SDS011;35569;48.402;10.670;2022-08-02T01:30:13;1.00;;;1.00;;
10489;SDS011;35569;48.402;10.670;2022-08-02T01:30:46;0.70;;;0.70;;
10489;SDS011;35569;48.402;10.670;2022-08-02T01:31:25;0.90;;;0.90;;
10489;SDS011;35569;48.402;10.670;2022-08-02T01:32:02;1.90;;;1.07;;
10489;SDS011;35569;48.402;10.670;2022-08-02T01:32:40;1.00;;;1.00;;
10489;SDS011;35569;48.402;10.670;2022-08-02T01:33:15;0.90;;;0.90;;
10489;SDS011;35569;48.402;10.670;2022-08-02T01:33:50;0.93;;;0.93;;
10489;SDS011;35569;48.402;10.670;2022-08-02T01:34:29;1.03;;;0.93;;
10489;SDS011;35569;48.402;10.670;2022-08-02T01:35:06;0.77;;;0.77;;
10489;SDS011;35569;48.402;10.670;2022-08-02T01:35:41;1.40;;;0.97;;
10489;SDS011;35569;48.402;10.670;2022-08-02T01:36:21;1.10;;;1.10;;
10489;SDS011;35569;48.402;10.670;2022-08-02T01:36:56;0.90;;;0.90;;
10489;SDS011;35569;48.402;10.670;2022-08-02T01:37:37;0.87;;;0.87;;
10489;SDS011;35569;48.402;10.670;2022-08-02T01:38:13;1.00;;;0.90;;
10489;SDS011;35569;48.402;10.670;2022-08-02T01:38:50;1.10;;;1.10;;
10489;SDS011;35569;48.402;10.670;2022-08-02T01:39:27;0.80;;;0.80;;
10489;SDS011;35569;48.402;10.670;2022-08-02T01:40:04;0.80;;;0.80;;
10489;SDS011;35569;48.402;10.670;2022-08-02T01:40:43;1.00;;;1.00;;
10489;SDS011;35569;48.402;10.670;2022-08-02T01:41:17;1.13;;;1.03;;
10489;SDS011;35569;48.402;10.670;2022-08-02T01:41:53;1.00;;;1.00;;
10489;SDS011;35569;48.402;10.670;2022-08-02T01:42:29;1.53;;;1.00;;
10489;SDS011;35569;48.402;10.670;2022-08-02T01:43:05;0.77;;;0.77;;
10489;SDS011;35569;48.402;10.670;2022-08-02T01:43:45;1.77;;;1.20;;
10489;SDS011;35569;48.402;10.670;2022-08-02T01:44:20;1.07;;;0.93;;
10489;SDS011;35569;48.402;10.670;2022-08-02T01:44:58;0.90;;;0.90;;
10489;SDS011;35569;48.402;10.670;2022-08-02T01:45:33;1.10;;;1.10;;
10489;SDS011;35569;48.402;10.670;2022-08-02T01:46:06;2.93;;;1.00;;
10489;SDS011;35569;48.402;10.670;2022-08-02T01:46:43;0.90;;;0.90;;
10489;SDS011;35569;48.402;10.670;2022-08-02T01:47:18;1.00;;;0.80;;
10489;SDS011;35569;48.402;10.670;2022-08-02T01:47:56;1.63;;;1.10;;
10489;SDS011;35569;48.402;10.670;2022-08-02T01:48:30;0.90;;;0.90;;
10489;SDS011;35569;48.402;10.670;2022-08-02T01:49:06;0.90;;;0.90;;
10489;SDS011;35569;48.402;10.670;2022-08-02T01:49:44;1.13;;;1.10;;
10489;SDS011;35569;48.402;10.670;2022-08-02T01:50:20;0.90;;;0.90;;
10489;SDS011;35569;48.402;10.670;2022-08-02T01:50:54;2.63;;;1.00;;
10489;SDS011;35569;48.402;10.670;2022-08-02T01:51:29;0.90;;;0.90;;
10489;SDS011;35569;48.402;10.670;2022-08-02T01:52:18;0.90;;;0.80;;
10489;SDS011;35569;48.402;10.670;2022-08-02T01:52:56;1.20;;;1.10;;
10489;SDS011;35569;48.402;10.670;2022-08-02T01:53:30;1.00;;;1.00;;
10489;SDS011;35569;48.402;10.670;2022-08-02T01:54:06;2.50;;;1.10;;
10489;SDS011;35569;48.402;10.670;2022-08-02T01:54:40;1.10;;;1.10;;
10489;SDS011;35569;48.402;10.670;2022-08-02T01:55:16;0.90;;;0.90;;
10489;SDS011;35569;48.402;10.670;2022-08-02T01:56:04;0.80;;;0.80;;
10489;SDS011;35569;48.402;10.670;2022-08-02T01:56:36;2.00;;;0.90;;
10489;SDS011;35569;48.402;10.670;2022-08-02T01:57:10;0.80;;;0.80;;
10489;SDS011;35569;48.402;10.670;2022-08-02T01:57:48;0.90;;;0.90;;
10489;SDS011;35569;48.402;10.670;2022-08-02T01:58:21;1.07;;;1.07;;
10489;SDS011;35569;48.402;10.670;2022-08-02T01:58:59;0.83;;;0.83;;
10489;SDS011;35569;48.402;10.670;2022-08-02T01:59:34;1.07;;;1.07;;
10489;SDS011;35569;48.402;10.670;2022-08-02T02:00:08;1.10;;;1.00;;
10489;SDS011;35569;48.402;10.670;2022-08-02T02:00:45;0.90;;;0.90;;
10489;SDS011;35569;48.402;10.670;2022-08-02T02:01:18;1.00;;;1.00;;
10489;SDS011;35569;48.402;10.670;2022-08-02T02:01:52;0.80;;;0.80;;
10489;SDS011;35569;48.402;10.670;2022-08-02T02:02:26;0.80;;;0.80;;
10489;SDS011;35569;48.402;10.670;2022-08-02T02:03:02;1.80;;;1.10;;
10489;SDS011;35569;48.402;10.670;2022-08-02T02:03:36;0.67;;;0.67;;
10489;SDS011;35569;48.402;10.670;2022-08-02T02:04:12;1.10;;;0.90;;
10489;SDS011;35569;48.402;10.670;2022-08-02T02:04:48;0.80;;;0.80;;
10489;SDS011;35569;48.402;10.670;2022-08-02T02:05:21;0.77;;;0.77;;
10489;SDS011;35569;48.402;10.670;2022-08-02T02:05:59;2.20;;;0.80;;
10489;SDS011;35569;48.402;10.670;2022-08-02T02:06:33;1.20;;;1.20;;
10489;SDS011;35569;48.402;10.670;2022-08-02T02:07:06;0.90;;;0.90;;
10489;SDS011;35569;48.402;10.670;2022-08-02T02:07:41;1.17;;;1.17;;
10489;SDS011;35569;48.402;10.670;2022-08-02T02:08:15;1.60;;;1.07;;
10489;SDS011;35569;48.402;10.670;2022-08-02T02:08:58;1.30;;;1.20;;
10489;SDS011;35569;48.402;10.670;2022-08-02T02:09:34;1.07;;;1.07;;
10489;SDS011;35569;48.402;10.670;2022-08-02T02:10:23;2.37;;;1.30;;
10489;SDS011;35569;48.402;10.670;2022-08-02T02:11:00;1.60;;;0.90;;
10489;SDS011;35569;48.402;10.670;2022-08-02T02:11:54;1.00;;;1.00;;
10489;SDS011;35569;48.402;10.670;2022-08-02T02:12:45;1.10;;;1.00;;
10489;SDS011;35569;48.402;10.670;2022-08-02T02:13:21;0.80;;;0.80;;
10489;SDS011;35569;48.402;10.670;2022-08-02T02:14:07;1.00;;;0.90;;
10489;SDS011;35569;48.402;10.670;2022-08-02T02:14:39;1.60;;;1.47;;
10489;SDS011;35569;48.402;10.670;2022-08-02T02:15:22;0.90;;;0.90;;
10489;SDS011;35569;48.402;10.670;2022-08-02T02:15:56;2.00;;;0.80;;
10489;SDS011;35569;48.402;10.670;2022-08-02T02:16:30;6.87;;;0.97;;
10489;SDS011;35569;48.402;10.670;2022-08-02T02:17:06;0.80;;;0.80;;
10489;SDS011;35569;48.402;10.670;2022-08-02T02:17:59;0.80;;;0.80;;
10489;SDS011;35569;48.402;10.670;2022-08-02T02:18:44;2.30;;;0.93;;
10489;SDS011;35569;48.402;10.670;2022-08-02T02:19:18;1.00;;;1.00;;
10489;SDS011;35569;48.402;10.670;2022-08-02T02:19:53;1.10;;;0.93;;
10489;SDS011;35569;48.402;10.670;2022-08-02T02:20:29;0.80;;;0.80;;
10489;SDS011;35569;48.402;10.670;2022-08-02T02:21:02;0.93;;;0.93;;
10489;SDS011;35569;48.402;10.670;2022-08-02T02:21:36;0.90;;;0.90;;
10489;SDS011;35569;48.402;10.670;2022-08-02T02:22:12;2.80;;;1.10;;
10489;SDS011;35569;48.402;10.670;2022-08-02T02:22:44;1.10;;;0.87;;
10489;SDS011;35569;48.402;10.670;2022-08-02T02:23:21;0.97;;;0.97;;
10489;SDS011;35569;48.402;10.670;2022-08-02T02:23:56;2.03;;;0.90;;
10489;SDS011;35569;48.402;10.670;2022-08-02T02:24:29;0.70;;;0.70;;
10489;SDS011;35569;48.402;10.670;2022-08-02T02:25:05;0.70;;;0.70;;
10489;SDS011;35569;48.402;10.670;2022-08-02T02:25:42;0.87;;;0.87;;
10489;SDS011;35569;48.402;10.670;2022-08-02T02:26:17;0.73;;;0.73;;
10489;SDS011;35569;48.402;10.670;2022-08-02T02:27:02;0.90;;;0.90;;
10489;SDS011;35569;48.402;10.670;2022-08-02T02:27:35;0.60;;;0.60;;
10489;SDS011;35569;48.402;10.670;2022-08-02T02:28:11;2.47;;;0.97;;
10489;SDS011;35569;48.402;10.670;2022-08-02T02:28:47;2.70;;;0.97;;
10489;SDS011;35569;48.402;10.670;2022-08-02T02:29:23;0.90;;;0.90;;
10489;SDS011;35569;48.402;10.670;2022-08-02T02:29:56;0.80;;;0.80;;
10489;SDS011;35569;48.402;10.670;2022-08-02T02:30:32;1.57;;;0.80;;
10489;SDS011;35569;48.402;10.670;2022-08-02T02:31:05;1.43;;;0.80;;
10489;SDS011;35569;48.402;10.670;2022-08-02T02:31:39;0.90;;;0.90;;
10489;SDS011;35569;48.402;10.670;2022-08-02T02:32:13;0.67;;;0.67;;
10489;SDS011;35569;48.402;10.670;2022-08-02T02:32:49;0.60;;;0.60;;
10489;SDS011;35569;48.402;10.670;2022-08-02T02:33:24;2.30;;;0.80;;
10489;SDS011;35569;48.402;10.670;2022-08-02T02:34:00;0.80;;;0.80;;
10489;SDS011;35569;48.402;10.670;2022-08-02T02:34:36;5.30;;;1.20;;
10489;SDS011;35569;48.402;10.670;2022-08-02T02:35:12;1.00;;;0.80;;
10489;SDS011;35569;48.402;10.670;2022-08-02T02:35:49;1.60;;;1.00;;
10489;SDS011;35569;48.402;10.670;2022-08-02T02:36:22;0.90;;;0.90;;
10489;SDS011;35569;48.402;10.670;2022-08-02T02:36:59;1.23;;;0.87;;
10489;SDS011;35569;48.402;10.670;2022-08-02T02:37:34;2.33;;;1.40;;
10489;SDS011;35569;48.402;10.670;2022-08-02T02:38:10;1.00;;;1.00;;
10489;SDS011;35569;48.402;10.670;2022-08-02T02:38:44;0.90;;;0.90;;
10489;SDS011;35569;48.402;10.670;2022-08-02T02:39:19;3.90;;;1.20;;
10489;SDS011;35569;48.402;10.670;2022-08-02T02:39:56;1.33;;;1.33;;
10489;SDS011;35569;48.402;10.670;2022-08-02T02:40:29;1.70;;;1.20;;
10489;SDS011;35569;48.402;10.670;2022-08-02T02:41:03;1.33;;;1.30;;
10489;SDS011;35569;48.402;10.670;2022-08-02T02:41:39;0.97;;;0.97;;
10489;SDS011;35569;48.402;10.670;2022-08-02T02:42:13;1.27;;;1.17;;
10489;SDS011;35569;48.402;10.670;2022-08-02T02:42:46;1.60;;;0.97;;
10489;SDS011;35569;48.402;10.670;2022-08-02T02:43:21;2.20;;;1.23;;
10489;SDS011;35569;48.402;10.670;2022-08-02T02:43:55;1.43;;;1.40;;
10489;SDS011;35569;48.402;10.670;2022-08-02T02:44:33;1.20;;;1.10;;
10489;SDS011;35569;48.402;10.670;2022-08-02T02:45:09;1.27;;;1.20;;
10489;SDS011;35569;48.402;10.670;2022-08-02T02:45:42;1.40;;;1.30;;
10489;SDS011;35569;48.402;10.670;2022-08-02T02:46:14;1.60;;;1.50;;
10489;SDS011;35569;48.402;10.670;2022-08-02T02:46:52;1.33;;;1.23;;
10489;SDS011;35569;48.402;10.670;2022-08-02T02:47:26;3.40;;;1.50;;
10489;SDS011;35569;48.402;10.670;2022-08-02T02:48:12;1.70;;;1.60;;
10489;SDS011;35569;48.402;10.670;2022-08-02T02:48:45;1.60;;;1.50;;
10489;SDS011;35569;48.402;10.670;2022-08-02T02:49:18;2.97;;;1.40;;
10489;SDS011;35569;48.402;10.670;2022-08-02T02:49:54;3.17;;;1.30;;
10489;SDS011;35569;48.402;10.670;2022-08-02T02:50:28;1.70;;;1.60;;
10489;SDS011;35569;48.402;10.670;2022-08-02T02:51:02;1.53;;;1.40;;
10489;SDS011;35569;48.402;10.670;2022-08-02T02:51:44;2.13;;;1.63;;
10489;SDS011;35569;48.402;10.670;2022-08-02T02:52:17;2.40;;;1.50;;
10489;SDS011;35569;48.402;10.670;2022-08-02T02:52:52;1.90;;;1.80;;
10489;SDS011;35569;48.402;10.670;2022-08-02T02:53:25;20.13;;;2.20;;
10489;SDS011;35569;48.402;10.670;2022-08-02T02:53:58;1.70;;;1.60;;
10489;SDS011;35569;48.402;10.670;2022-08-02T02:54:53;1.67;;;1.23;;
10489;SDS011;35569;48.402;10.670;2022-08-02T02:55:26;2.10;;;2.00;;
10489;SDS011;35569;48.402;10.670;2022-08-02T02:56:02;1.87;;;1.87;;
10489;SDS011;35569;48.402;10.670;2022-08-02T02:56:35;3.83;;;1.23;;
10489;SDS011;35569;48.402;10.670;2022-08-02T02:57:09;1.70;;;1.60;;
10489;SDS011;35569;48.402;10.670;2022-08-02T02:57:44;1.70;;;1.60;;
10489;SDS011;35569;48.402;10.670;2022-08-02T02:58:17;2.30;;;1.50;;
10489;SDS011;35569;48.402;10.670;2022-08-02T02:58:59;2.20;;;2.00;;
10489;SDS011;35569;48.402;10.670;2022-08-02T02:59:37;1.87;;;1.73;;
10489;SDS011;35569;48.402;10.670;2022-08-02T03:00:19;1.40;;;1.40;;
10489;SDS011;35569;48.402;10.670;2022-08-02T03:01:19;1.90;;;1.90;;
10489;SDS011;35569;48.402;10.670;2022-08-02T03:02:18;3.70;;;1.80;;
10489;SDS011;35569;48.402;10.670;2022-08-02T03:02:54;2.00;;;1.90;;
10489;SDS011;35569;48.402;10.670;2022-08-02T03:03:26;2.00;;;1.90;;
10489;SDS011;35569;48.402;10.670;2022-08-02T03:04:00;2.03;;;1.93;;
10489;SDS011;35569;48.402;10.670;2022-08-02T03:04:34;2.00;;;1.90;;
10489;SDS011;35569;48.402;10.670;2022-08-02T03:05:28;1.63;;;1.50;;
10489;SDS011;35569;48.402;10.670;2022-08-02T03:06:00;1.53;;;1.43;;
10489;SDS011;35569;48.402;10.670;2022-08-02T03:06:45;1.80;;;1.70;;
10489;SDS011;35569;48.402;10.670;2022-08-02T03:07:28;2.00;;;1.80;;
10489;SDS011;35569;48.402;10.670;2022-08-02T03:08:03;2.00;;;1.50;;
10489;SDS011;35569;48.402;10.670;2022-08-02T03:08:44;3.53;;;2.17;;
10489;SDS011;35569;48.402;10.670;2022-08-02T03:09:18;1.80;;;1.67;;
10489;SDS011;35569;48.402;10.670;2022-08-02T03:09:51;1.63;;;1.53;;
10489;SDS011;35569;48.402;10.670;2022-08-02T03:10:26;1.33;;;1.33;;
10489;SDS011;35569;48.402;10.670;2022-08-02T03:10:59;2.23;;;1.77;;
10489;SDS011;35569;48.402;10.670;2022-08-02T03:11:35;4.10;;;1.77;;
10489;SDS011;35569;48.402;10.670;2022-08-02T03:12:11;1.70;;;1.60;;
10489;SDS011;35569;48.402;10.670;2022-08-02T03:12:49;2.73;;;2.07;;
10489;SDS011;35569;48.402;10.670;2022-08-02T03:13:23;1.90;;;1.80;;
10489;SDS011;35569;48.402;10.670;2022-08-02T03:14:04;2.53;;;1.63;;
10489;SDS011;35569;48.402;10.670;2022-08-02T03:14:43;1.90;;;1.70;;
10489;SDS011;35569;48.402;10.670;2022-08-02T03:15:20;1.60;;;1.50;;
10489;SDS011;35569;48.402;10.670;2022-08-02T03:15:53;2.20;;;1.67;;
10489;SDS011;35569;48.402;10.670;2022-08-02T03:16:29;2.17;;;2.07;;
10489;SDS011;35569;48.402;10.670;2022-08-02T03:17:04;2.90;;;2.00;;
10489;SDS011;35569;48.402;10.670;2022-08-02T03:17:39;1.77;;;1.67;;
10489;SDS011;35569;48.402;10.670;2022-08-02T03:19:21;1.60;;;1.60;;
10489;SDS011;35569;48.402;10.670;2022-08-02T03:20:06;1.90;;;1.80;;
10489;SDS011;35569;48.402;10.670;2022-08-02T03:20:45;2.20;;;2.10;;
10489;SDS011;35569;48.402;10.670;2022-08-02T03:21:18;1.10;;;1.10;;
10489;SDS011;35569;48.402;10.670;2022-08-02T03:21:51;3.20;;;1.70;;
10489;SDS011;35569;48.402;10.670;2022-08-02T03:22:28;1.80;;;1.70;;
10489;SDS011;35569;48.402;10.670;2022-08-02T03:23:00;1.77;;;1.33;;
10489;SDS011;35569;48.402;10.670;2022-08-02T03:23:33;2.40;;;1.57;;
10489;SDS011;35569;48.402;10.670;2022-08-02T03:24:06;2.50;;;1.50;;
10489;SDS011;35569;48.402;10.670;2022-08-02T03:24:41;1.87;;;1.77;;
10489;SDS011;35569;48.402;10.670;2022-08-02T03:25:14;1.50;;;1.40;;
10489;SDS011;35569;48.402;10.670;2022-08-02T03:25:52;1.40;;;1.33;;
10489;SDS011;35569;48.402;10.670;2022-08-02T03:26:31;1.33;;;1.33;;
10489;SDS011;35569;48.402;10.670;2022-08-02T03:27:03;1.57;;;1.50;;
10489;SDS011;35569;48.402;10.670;2022-08-02T03:27:36;1.10;;;1.10;;
10489;SDS011;35569;48.402;10.670;2022-08-02T03:28:16;1.70;;;1.60;;
10489;SDS011;35569;48.402;10.670;2022-08-02T03:28:48;1.40;;;1.30;;
10489;SDS011;35569;48.402;10.670;2022-08-02T03:29:24;1.60;;;1.50;;
10489;SDS011;35569;48.402;10.670;2022-08-02T03:30:08;1.30;;;1.20;;
10489;SDS011;35569;48.402;10.670;2022-08-02T03:30:42;3.63;;;1.60;;
10489;SDS011;35569;48.402;10.670;2022-08-02T03:31:15;1.70;;;1.53;;
10489;SDS011;35569;48.402;10.670;2022-08-02T03:31:50;1.30;;;1.30;;
10489;SDS011;35569;48.402;10.670;2022-08-02T03:32:24;1.13;;;1.13;;
10489;SDS011;35569;48.402;10.670;2022-08-02T03:32:56;1.00;;;1.00;;
10489;SDS011;35569;48.402;10.670;2022-08-02T03:33:31;1.30;;;1.30;;
10489;SDS011;35569;48.402;10.670;2022-08-02T03:34:04;3.43;;;1.23;;
10489;SDS011;35569;48.402;10.670;2022-08-02T03:34:37;1.00;;;1.00;;
10489;SDS011;35569;48.402;10.670;2022-08-02T03:35:13;1.20;;;1.20;;
10489;SDS011;35569;48.402;10.670;2022-08-02T03:35:54;1.67;;;1.10;;
10489;SDS011;35569;48.402;10.670;2022-08-02T03:36:31;1.83;;;1.30;;
10489;SDS011;35569;48.402;10.670;2022-08-02T03:37:09;1.30;;;1.20;;